sensor_id;sensor_type;location;lat;lon;timestamp;P1;durP1;ratioP1;P2;durP2;ratioP2
26574;SDS011;67165;50.256;10.978;2024-03-07T00:00:34;20.20;;;13.43;;
26574;SDS011;67165;50.256;10.978;2024-03-07T00:03:00;19.88;;;13.30;;
26574;SDS011;67165;50.256;10.978;2024-03-07T00:05:26;20.02;;;12.93;;
26574;SDS011;67165;50.256;10.978;2024-03-07T00:07:53;20.30;;;13.43;;
26574;SDS011;67165;50.256;10.978;2024-03-07T00:10:19;19.42;;;13.27;;
26574;SDS011;67165;50.256;10.978;2024-03-07T00:12:46;21.75;;;13.50;;
26574;SDS011;67165;50.256;10.978;2024-03-07T00:15:13;18.75;;;12.70;;
26574;SDS011;67165;50.256;10.978;2024-03-07T00:17:40;23.35;;;13.55;;
26574;SDS011;67165;50.256;10.978;2024-03-07T00:20:06;20.33;;;13.95;;
26574;SDS011;67165;50.256;10.978;2024-03-07T00:22:42;21.90;;;13.60;;
26574;SDS011;67165;50.256;10.978;2024-03-07T00:25:08;21.80;;;14.90;;
26574;SDS011;67165;50.256;10.978;2024-03-07T00:27:35;25.95;;;14.57;;
26574;SDS011;67165;50.256;10.978;2024-03-07T00:30:01;27.33;;;15.05;;
26574;SDS011;67165;50.256;10.978;2024-03-07T00:32:27;23.63;;;14.98;;
26574;SDS011;67165;50.256;10.978;2024-03-07T00:34:55;22.90;;;14.82;;
26574;SDS011;67165;50.256;10.978;2024-03-07T00:37:24;23.70;;;15.00;;
26574;SDS011;67165;50.256;10.978;2024-03-07T00:39:50;24.10;;;15.50;;
26574;SDS011;67165;50.256;10.978;2024-03-07T00:42:16;24.20;;;15.20;;
26574;SDS011;67165;50.256;10.978;2024-03-07T00:44:42;24.63;;;15.32;;
26574;SDS011;67165;50.256;10.978;2024-03-07T00:47:08;25.55;;;15.73;;
26574;SDS011;67165;50.256;10.978;2024-03-07T00:49:34;21.65;;;14.45;;
26574;SDS011;67165;50.256;10.978;2024-03-07T00:52:00;22.83;;;15.25;;
26574;SDS011;67165;50.256;10.978;2024-03-07T00:54:26;26.25;;;15.98;;
26574;SDS011;67165;50.256;10.978;2024-03-07T00:56:52;27.17;;;15.45;;
26574;SDS011;67165;50.256;10.978;2024-03-07T00:59:18;25.70;;;15.10;;
26574;SDS011;67165;50.256;10.978;2024-03-07T01:01:44;26.75;;;15.38;;
26574;SDS011;67165;50.256;10.978;2024-03-07T01:04:10;23.02;;;15.43;;
26574;SDS011;67165;50.256;10.978;2024-03-07T01:06:36;24.05;;;15.30;;
26574;SDS011;67165;50.256;10.978;2024-03-07T01:09:03;25.75;;;15.45;;
26574;SDS011;67165;50.256;10.978;2024-03-07T01:11:29;23.50;;;15.63;;
26574;SDS011;67165;50.256;10.978;2024-03-07T01:13:55;23.40;;;14.90;;
26574;SDS011;67165;50.256;10.978;2024-03-07T01:16:22;24.50;;;15.52;;
26574;SDS011;67165;50.256;10.978;2024-03-07T01:18:47;28.23;;;15.30;;
26574;SDS011;67165;50.256;10.978;2024-03-07T01:21:14;27.42;;;15.25;;
26574;SDS011;67165;50.256;10.978;2024-03-07T01:23:40;23.85;;;15.55;;
26574;SDS011;67165;50.256;10.978;2024-03-07T01:26:05;26.63;;;15.98;;
26574;SDS011;67165;50.256;10.978;2024-03-07T01:28:32;25.00;;;15.05;;
26574;SDS011;67165;50.256;10.978;2024-03-07T01:30:58;23.83;;;15.43;;
26574;SDS011;67165;50.256;10.978;2024-03-07T01:33:24;23.35;;;15.18;;
26574;SDS011;67165;50.256;10.978;2024-03-07T01:35:49;28.88;;;16.10;;
26574;SDS011;67165;50.256;10.978;2024-03-07T01:38:15;29.02;;;16.48;;
26574;SDS011;67165;50.256;10.978;2024-03-07T01:40:45;25.83;;;16.08;;
26574;SDS011;67165;50.256;10.978;2024-03-07T01:43:11;24.92;;;16.35;;
26574;SDS011;67165;50.256;10.978;2024-03-07T01:45:37;26.00;;;16.20;;
26574;SDS011;67165;50.256;10.978;2024-03-07T01:48:03;27.23;;;16.40;;
26574;SDS011;67165;50.256;10.978;2024-03-07T01:50:34;26.85;;;16.70;;
26574;SDS011;67165;50.256;10.978;2024-03-07T01:53:04;25.40;;;15.80;;
26574;SDS011;67165;50.256;10.978;2024-03-07T01:55:34;28.00;;;15.75;;
26574;SDS011;67165;50.256;10.978;2024-03-07T01:58:02;27.73;;;15.55;;
26574;SDS011;67165;50.256;10.978;2024-03-07T02:00:29;24.60;;;15.15;;
26574;SDS011;67165;50.256;10.978;2024-03-07T02:02:56;24.42;;;14.90;;
26574;SDS011;67165;50.256;10.978;2024-03-07T02:05:22;24.13;;;14.95;;
26574;SDS011;67165;50.256;10.978;2024-03-07T02:07:49;26.45;;;16.20;;
26574;SDS011;67165;50.256;10.978;2024-03-07T02:10:16;23.65;;;14.55;;
26574;SDS011;67165;50.256;10.978;2024-03-07T02:12:43;27.27;;;15.60;;
26574;SDS011;67165;50.256;10.978;2024-03-07T02:15:10;26.35;;;15.50;;
26574;SDS011;67165;50.256;10.978;2024-03-07T02:17:36;25.23;;;14.85;;
26574;SDS011;67165;50.256;10.978;2024-03-07T02:20:02;24.02;;;13.98;;
26574;SDS011;67165;50.256;10.978;2024-03-07T02:22:29;23.50;;;14.07;;
26574;SDS011;67165;50.256;10.978;2024-03-07T02:24:55;23.30;;;14.05;;
26574;SDS011;67165;50.256;10.978;2024-03-07T02:27:21;22.33;;;12.93;;
26574;SDS011;67165;50.256;10.978;2024-03-07T02:29:47;22.80;;;13.30;;
26574;SDS011;67165;50.256;10.978;2024-03-07T02:32:14;23.67;;;13.07;;
26574;SDS011;67165;50.256;10.978;2024-03-07T02:34:39;22.75;;;13.00;;
26574;SDS011;67165;50.256;10.978;2024-03-07T02:37:05;22.90;;;13.25;;
26574;SDS011;67165;50.256;10.978;2024-03-07T02:39:31;24.83;;;13.10;;
26574;SDS011;67165;50.256;10.978;2024-03-07T02:41:57;22.33;;;12.77;;
26574;SDS011;67165;50.256;10.978;2024-03-07T02:44:22;21.42;;;12.00;;
26574;SDS011;67165;50.256;10.978;2024-03-07T02:46:48;22.17;;;12.63;;
26574;SDS011;67165;50.256;10.978;2024-03-07T02:49:14;20.30;;;12.77;;
26574;SDS011;67165;50.256;10.978;2024-03-07T02:51:40;22.88;;;13.25;;
26574;SDS011;67165;50.256;10.978;2024-03-07T02:54:07;23.85;;;13.13;;
26574;SDS011;67165;50.256;10.978;2024-03-07T02:56:33;21.10;;;13.07;;
26574;SDS011;67165;50.256;10.978;2024-03-07T02:58:58;20.73;;;12.52;;
26574;SDS011;67165;50.256;10.978;2024-03-07T03:01:24;23.40;;;12.55;;
26574;SDS011;67165;50.256;10.978;2024-03-07T03:03:50;22.63;;;13.18;;
26574;SDS011;67165;50.256;10.978;2024-03-07T03:06:16;25.35;;;13.23;;
26574;SDS011;67165;50.256;10.978;2024-03-07T03:08:45;23.08;;;12.98;;
26574;SDS011;67165;50.256;10.978;2024-03-07T03:11:13;27.30;;;13.75;;
26574;SDS011;67165;50.256;10.978;2024-03-07T03:13:41;24.67;;;13.85;;
26574;SDS011;67165;50.256;10.978;2024-03-07T03:16:07;23.50;;;13.80;;
26574;SDS011;67165;50.256;10.978;2024-03-07T03:18:34;25.42;;;13.70;;
26574;SDS011;67165;50.256;10.978;2024-03-07T03:21:01;23.60;;;13.20;;
26574;SDS011;67165;50.256;10.978;2024-03-07T03:23:27;28.13;;;14.50;;
26574;SDS011;67165;50.256;10.978;2024-03-07T03:25:56;23.98;;;13.55;;
26574;SDS011;67165;50.256;10.978;2024-03-07T03:28:22;24.13;;;14.50;;
26574;SDS011;67165;50.256;10.978;2024-03-07T03:30:48;23.92;;;13.93;;
26574;SDS011;67165;50.256;10.978;2024-03-07T03:33:15;24.63;;;14.68;;
26574;SDS011;67165;50.256;10.978;2024-03-07T03:35:41;26.02;;;15.38;;
26574;SDS011;67165;50.256;10.978;2024-03-07T03:38:07;30.10;;;15.88;;
26574;SDS011;67165;50.256;10.978;2024-03-07T03:40:33;28.83;;;14.98;;
26574;SDS011;67165;50.256;10.978;2024-03-07T03:42:59;25.67;;;15.45;;
26574;SDS011;67165;50.256;10.978;2024-03-07T03:45:25;27.05;;;15.80;;
26574;SDS011;67165;50.256;10.978;2024-03-07T03:47:51;26.35;;;15.75;;
26574;SDS011;67165;50.256;10.978;2024-03-07T03:50:18;28.10;;;15.95;;
26574;SDS011;67165;50.256;10.978;2024-03-07T03:52:44;24.02;;;15.20;;
26574;SDS011;67165;50.256;10.978;2024-03-07T03:55:10;27.58;;;15.25;;
26574;SDS011;67165;50.256;10.978;2024-03-07T03:57:39;28.65;;;16.20;;
26574;SDS011;67165;50.256;10.978;2024-03-07T04:00:07;27.35;;;16.30;;
26574;SDS011;67165;50.256;10.978;2024-03-07T04:02:43;28.52;;;16.40;;
26574;SDS011;67165;50.256;10.978;2024-03-07T04:05:13;27.77;;;15.95;;
26574;SDS011;67165;50.256;10.978;2024-03-07T04:07:40;28.77;;;16.20;;
26574;SDS011;67165;50.256;10.978;2024-03-07T04:10:09;38.15;;;16.85;;
26574;SDS011;67165;50.256;10.978;2024-03-07T04:12:36;31.08;;;17.92;;
26574;SDS011;67165;50.256;10.978;2024-03-07T04:15:12;30.45;;;17.13;;
26574;SDS011;67165;50.256;10.978;2024-03-07T04:17:42;33.53;;;18.85;;
26574;SDS011;67165;50.256;10.978;2024-03-07T04:20:10;33.85;;;17.95;;
26574;SDS011;67165;50.256;10.978;2024-03-07T04:22:36;33.33;;;17.65;;
26574;SDS011;67165;50.256;10.978;2024-03-07T04:25:06;34.90;;;18.83;;
26574;SDS011;67165;50.256;10.978;2024-03-07T04:27:33;34.20;;;19.17;;
26574;SDS011;67165;50.256;10.978;2024-03-07T04:30:05;32.92;;;18.20;;
26574;SDS011;67165;50.256;10.978;2024-03-07T04:32:33;34.50;;;18.98;;
26574;SDS011;67165;50.256;10.978;2024-03-07T04:35:03;33.20;;;18.92;;
26574;SDS011;67165;50.256;10.978;2024-03-07T04:37:35;36.20;;;18.77;;
26574;SDS011;67165;50.256;10.978;2024-03-07T04:40:06;35.05;;;18.20;;
26574;SDS011;67165;50.256;10.978;2024-03-07T04:42:42;38.78;;;19.83;;
26574;SDS011;67165;50.256;10.978;2024-03-07T04:45:10;35.65;;;19.02;;
26574;SDS011;67165;50.256;10.978;2024-03-07T04:47:38;32.60;;;18.92;;
26574;SDS011;67165;50.256;10.978;2024-03-07T04:50:05;33.42;;;19.05;;
26574;SDS011;67165;50.256;10.978;2024-03-07T04:52:31;38.13;;;20.52;;
26574;SDS011;67165;50.256;10.978;2024-03-07T04:54:58;33.80;;;18.58;;
26574;SDS011;67165;50.256;10.978;2024-03-07T04:57:24;37.15;;;19.85;;
26574;SDS011;67165;50.256;10.978;2024-03-07T04:59:50;40.60;;;20.05;;
26574;SDS011;67165;50.256;10.978;2024-03-07T05:02:16;39.08;;;20.80;;
26574;SDS011;67165;50.256;10.978;2024-03-07T05:04:41;36.08;;;19.50;;
26574;SDS011;67165;50.256;10.978;2024-03-07T05:07:07;34.17;;;19.58;;
26574;SDS011;67165;50.256;10.978;2024-03-07T05:09:33;32.08;;;18.35;;
26574;SDS011;67165;50.256;10.978;2024-03-07T05:11:59;31.50;;;17.90;;
26574;SDS011;67165;50.256;10.978;2024-03-07T05:14:24;34.60;;;19.30;;
26574;SDS011;67165;50.256;10.978;2024-03-07T05:16:50;35.90;;;20.65;;
26574;SDS011;67165;50.256;10.978;2024-03-07T05:19:33;34.90;;;18.70;;
26574;SDS011;67165;50.256;10.978;2024-03-07T05:21:59;35.55;;;20.08;;
26574;SDS011;67165;50.256;10.978;2024-03-07T05:24:26;37.47;;;19.35;;
26574;SDS011;67165;50.256;10.978;2024-03-07T05:26:52;35.13;;;18.98;;
26574;SDS011;67165;50.256;10.978;2024-03-07T05:29:19;36.97;;;19.90;;
26574;SDS011;67165;50.256;10.978;2024-03-07T05:31:45;41.40;;;20.83;;
26574;SDS011;67165;50.256;10.978;2024-03-07T05:34:13;36.50;;;20.33;;
26574;SDS011;67165;50.256;10.978;2024-03-07T05:36:48;40.63;;;21.15;;
26574;SDS011;67165;50.256;10.978;2024-03-07T05:39:14;35.97;;;20.23;;
26574;SDS011;67165;50.256;10.978;2024-03-07T05:41:42;34.50;;;19.40;;
26574;SDS011;67165;50.256;10.978;2024-03-07T05:44:10;39.80;;;21.33;;
26574;SDS011;67165;50.256;10.978;2024-03-07T05:49:06;38.22;;;21.15;;
26574;SDS011;67165;50.256;10.978;2024-03-07T05:51:34;37.65;;;20.55;;
26574;SDS011;67165;50.256;10.978;2024-03-07T05:54:01;38.30;;;21.65;;
26574;SDS011;67165;50.256;10.978;2024-03-07T05:56:31;47.72;;;22.92;;
26574;SDS011;67165;50.256;10.978;2024-03-07T05:59:00;42.42;;;22.58;;
26574;SDS011;67165;50.256;10.978;2024-03-07T06:01:30;43.10;;;23.60;;
26574;SDS011;67165;50.256;10.978;2024-03-07T06:03:58;41.70;;;22.35;;
26574;SDS011;67165;50.256;10.978;2024-03-07T06:06:24;42.42;;;22.83;;
26574;SDS011;67165;50.256;10.978;2024-03-07T06:08:50;39.00;;;22.15;;
26574;SDS011;67165;50.256;10.978;2024-03-07T06:11:16;40.10;;;23.40;;
26574;SDS011;67165;50.256;10.978;2024-03-07T06:13:46;42.65;;;23.88;;
26574;SDS011;67165;50.256;10.978;2024-03-07T06:16:12;41.08;;;23.33;;
26574;SDS011;67165;50.256;10.978;2024-03-07T06:18:39;45.30;;;23.92;;
26574;SDS011;67165;50.256;10.978;2024-03-07T06:21:08;44.33;;;23.75;;
26574;SDS011;67165;50.256;10.978;2024-03-07T06:23:34;42.65;;;23.70;;
26574;SDS011;67165;50.256;10.978;2024-03-07T06:26:00;43.25;;;23.88;;
26574;SDS011;67165;50.256;10.978;2024-03-07T06:28:28;46.63;;;24.95;;
26574;SDS011;67165;50.256;10.978;2024-03-07T06:30:54;42.38;;;24.48;;
26574;SDS011;67165;50.256;10.978;2024-03-07T06:33:20;46.30;;;24.75;;
26574;SDS011;67165;50.256;10.978;2024-03-07T06:35:46;42.28;;;23.83;;
26574;SDS011;67165;50.256;10.978;2024-03-07T06:38:13;44.33;;;23.10;;
26574;SDS011;67165;50.256;10.978;2024-03-07T06:40:39;45.05;;;23.65;;
26574;SDS011;67165;50.256;10.978;2024-03-07T06:43:07;45.50;;;23.33;;
26574;SDS011;67165;50.256;10.978;2024-03-07T06:45:38;42.80;;;23.58;;
26574;SDS011;67165;50.256;10.978;2024-03-07T06:48:05;43.90;;;22.95;;
26574;SDS011;67165;50.256;10.978;2024-03-07T06:50:35;42.63;;;23.17;;
26574;SDS011;67165;50.256;10.978;2024-03-07T06:53:05;41.30;;;22.15;;
26574;SDS011;67165;50.256;10.978;2024-03-07T06:55:34;41.17;;;22.00;;
26574;SDS011;67165;50.256;10.978;2024-03-07T06:58:01;39.28;;;22.25;;
26574;SDS011;67165;50.256;10.978;2024-03-07T07:00:29;40.40;;;22.58;;
26574;SDS011;67165;50.256;10.978;2024-03-07T07:02:57;45.20;;;22.38;;
26574;SDS011;67165;50.256;10.978;2024-03-07T07:05:22;43.53;;;22.00;;
26574;SDS011;67165;50.256;10.978;2024-03-07T07:07:48;40.65;;;21.92;;
26574;SDS011;67165;50.256;10.978;2024-03-07T07:10:14;39.03;;;21.52;;
26574;SDS011;67165;50.256;10.978;2024-03-07T07:12:44;46.20;;;23.02;;
26574;SDS011;67165;50.256;10.978;2024-03-07T07:15:11;45.50;;;21.98;;
26574;SDS011;67165;50.256;10.978;2024-03-07T07:17:37;43.78;;;21.70;;
26574;SDS011;67165;50.256;10.978;2024-03-07T07:20:04;44.88;;;22.27;;
26574;SDS011;67165;50.256;10.978;2024-03-07T07:22:38;43.70;;;22.05;;
26574;SDS011;67165;50.256;10.978;2024-03-07T07:25:04;38.33;;;21.13;;
26574;SDS011;67165;50.256;10.978;2024-03-07T07:27:33;37.58;;;20.15;;
26574;SDS011;67165;50.256;10.978;2024-03-07T07:29:59;45.28;;;20.80;;
26574;SDS011;67165;50.256;10.978;2024-03-07T07:32:25;42.90;;;20.50;;
26574;SDS011;67165;50.256;10.978;2024-03-07T07:34:52;40.85;;;20.80;;
26574;SDS011;67165;50.256;10.978;2024-03-07T07:37:19;41.05;;;19.98;;
26574;SDS011;67165;50.256;10.978;2024-03-07T07:39:44;39.13;;;20.80;;
26574;SDS011;67165;50.256;10.978;2024-03-07T07:42:11;40.25;;;19.77;;
26574;SDS011;67165;50.256;10.978;2024-03-07T07:44:37;36.33;;;19.65;;
26574;SDS011;67165;50.256;10.978;2024-03-07T07:47:03;35.97;;;19.55;;
26574;SDS011;67165;50.256;10.978;2024-03-07T07:49:30;33.03;;;18.58;;
26574;SDS011;67165;50.256;10.978;2024-03-07T07:51:56;33.60;;;19.65;;
26574;SDS011;67165;50.256;10.978;2024-03-07T07:54:22;37.50;;;19.35;;
26574;SDS011;67165;50.256;10.978;2024-03-07T07:56:49;34.50;;;19.73;;
26574;SDS011;67165;50.256;10.978;2024-03-07T07:59:16;33.83;;;18.70;;
26574;SDS011;67165;50.256;10.978;2024-03-07T08:01:42;33.83;;;18.80;;
26574;SDS011;67165;50.256;10.978;2024-03-07T08:04:07;36.85;;;18.90;;
26574;SDS011;67165;50.256;10.978;2024-03-07T08:06:34;34.03;;;18.73;;
26574;SDS011;67165;50.256;10.978;2024-03-07T08:09:00;39.63;;;17.95;;
26574;SDS011;67165;50.256;10.978;2024-03-07T08:11:26;31.20;;;17.77;;
26574;SDS011;67165;50.256;10.978;2024-03-07T08:13:52;32.72;;;18.40;;
26574;SDS011;67165;50.256;10.978;2024-03-07T08:16:17;29.15;;;15.77;;
26574;SDS011;67165;50.256;10.978;2024-03-07T08:18:43;31.95;;;17.50;;
26574;SDS011;67165;50.256;10.978;2024-03-07T08:21:09;31.33;;;17.38;;
26574;SDS011;67165;50.256;10.978;2024-03-07T08:23:38;33.20;;;17.60;;
26574;SDS011;67165;50.256;10.978;2024-03-07T08:26:04;31.45;;;17.52;;
26574;SDS011;67165;50.256;10.978;2024-03-07T08:28:30;31.15;;;17.20;;
26574;SDS011;67165;50.256;10.978;2024-03-07T08:30:56;32.08;;;17.77;;
26574;SDS011;67165;50.256;10.978;2024-03-07T08:33:23;34.00;;;17.90;;
26574;SDS011;67165;50.256;10.978;2024-03-07T08:35:49;31.42;;;17.65;;
26574;SDS011;67165;50.256;10.978;2024-03-07T08:38:18;31.65;;;17.77;;
26574;SDS011;67165;50.256;10.978;2024-03-07T08:40:43;29.20;;;16.95;;
26574;SDS011;67165;50.256;10.978;2024-03-07T08:43:09;27.92;;;16.80;;
26574;SDS011;67165;50.256;10.978;2024-03-07T08:45:35;33.28;;;17.58;;
26574;SDS011;67165;50.256;10.978;2024-03-07T08:48:01;33.75;;;17.40;;
26574;SDS011;67165;50.256;10.978;2024-03-07T08:50:33;33.13;;;17.65;;
26574;SDS011;67165;50.256;10.978;2024-03-07T08:53:00;27.45;;;15.65;;
26574;SDS011;67165;50.256;10.978;2024-03-07T08:55:26;31.40;;;17.50;;
26574;SDS011;67165;50.256;10.978;2024-03-07T08:57:52;26.52;;;16.55;;
26574;SDS011;67165;50.256;10.978;2024-03-07T09:00:18;30.50;;;16.38;;
26574;SDS011;67165;50.256;10.978;2024-03-07T09:02:51;25.95;;;15.52;;
26574;SDS011;67165;50.256;10.978;2024-03-07T09:05:19;25.50;;;15.10;;
26574;SDS011;67165;50.256;10.978;2024-03-07T09:07:47;25.83;;;15.27;;
26574;SDS011;67165;50.256;10.978;2024-03-07T09:10:13;26.30;;;16.23;;
26574;SDS011;67165;50.256;10.978;2024-03-07T09:12:42;27.80;;;15.23;;
26574;SDS011;67165;50.256;10.978;2024-03-07T09:15:09;26.63;;;15.90;;
26574;SDS011;67165;50.256;10.978;2024-03-07T09:17:36;34.03;;;19.92;;
26574;SDS011;67165;50.256;10.978;2024-03-07T09:20:02;24.10;;;14.10;;
26574;SDS011;67165;50.256;10.978;2024-03-07T09:22:31;24.65;;;15.45;;
26574;SDS011;67165;50.256;10.978;2024-03-07T09:24:58;26.00;;;14.77;;
26574;SDS011;67165;50.256;10.978;2024-03-07T09:27:24;26.00;;;15.45;;
26574;SDS011;67165;50.256;10.978;2024-03-07T09:29:50;26.80;;;14.20;;
26574;SDS011;67165;50.256;10.978;2024-03-07T09:32:16;24.35;;;15.45;;
26574;SDS011;67165;50.256;10.978;2024-03-07T09:34:42;24.27;;;15.40;;
26574;SDS011;67165;50.256;10.978;2024-03-07T09:37:08;27.38;;;15.88;;
26574;SDS011;67165;50.256;10.978;2024-03-07T09:39:34;27.10;;;15.30;;
26574;SDS011;67165;50.256;10.978;2024-03-07T09:42:04;23.80;;;14.80;;
26574;SDS011;67165;50.256;10.978;2024-03-07T09:44:34;25.17;;;15.13;;
26574;SDS011;67165;50.256;10.978;2024-03-07T09:47:04;24.95;;;15.27;;
26574;SDS011;67165;50.256;10.978;2024-03-07T09:49:30;24.92;;;15.25;;
26574;SDS011;67165;50.256;10.978;2024-03-07T09:52:01;28.23;;;15.35;;
26574;SDS011;67165;50.256;10.978;2024-03-07T09:54:33;27.67;;;15.70;;
26574;SDS011;67165;50.256;10.978;2024-03-07T09:57:03;25.17;;;15.45;;
26574;SDS011;67165;50.256;10.978;2024-03-07T09:59:34;26.27;;;15.93;;
26574;SDS011;67165;50.256;10.978;2024-03-07T10:02:05;27.20;;;15.80;;
26574;SDS011;67165;50.256;10.978;2024-03-07T10:04:43;28.27;;;16.17;;
26574;SDS011;67165;50.256;10.978;2024-03-07T10:07:14;26.92;;;15.32;;
26574;SDS011;67165;50.256;10.978;2024-03-07T10:09:41;31.35;;;16.02;;
26574;SDS011;67165;50.256;10.978;2024-03-07T10:12:08;31.20;;;16.25;;
26574;SDS011;67165;50.256;10.978;2024-03-07T10:14:38;24.85;;;14.88;;
26574;SDS011;67165;50.256;10.978;2024-03-07T10:17:04;31.00;;;16.55;;
26574;SDS011;67165;50.256;10.978;2024-03-07T10:19:30;27.77;;;15.68;;
26574;SDS011;67165;50.256;10.978;2024-03-07T10:21:56;29.95;;;17.35;;
26574;SDS011;67165;50.256;10.978;2024-03-07T10:24:26;26.73;;;16.27;;
26574;SDS011;67165;50.256;10.978;2024-03-07T10:26:53;28.98;;;17.08;;
26574;SDS011;67165;50.256;10.978;2024-03-07T10:29:21;30.48;;;16.52;;
26574;SDS011;67165;50.256;10.978;2024-03-07T10:31:48;27.95;;;16.05;;
26574;SDS011;67165;50.256;10.978;2024-03-07T10:34:14;28.63;;;16.38;;
26574;SDS011;67165;50.256;10.978;2024-03-07T10:36:43;29.55;;;17.17;;
26574;SDS011;67165;50.256;10.978;2024-03-07T10:39:10;30.60;;;17.48;;
26574;SDS011;67165;50.256;10.978;2024-03-07T10:41:47;31.67;;;17.52;;
26574;SDS011;67165;50.256;10.978;2024-03-07T10:44:18;28.55;;;16.48;;
26574;SDS011;67165;50.256;10.978;2024-03-07T10:46:46;31.40;;;16.45;;
26574;SDS011;67165;50.256;10.978;2024-03-07T10:51:57;31.55;;;16.17;;
26574;SDS011;67165;50.256;10.978;2024-03-07T11:00:00;30.38;;;17.73;;
26574;SDS011;67165;50.256;10.978;2024-03-07T11:02:48;33.10;;;18.80;;
26574;SDS011;67165;50.256;10.978;2024-03-07T11:05:18;32.88;;;18.85;;
26574;SDS011;67165;50.256;10.978;2024-03-07T11:07:49;30.80;;;18.70;;
26574;SDS011;67165;50.256;10.978;2024-03-07T11:10:19;30.38;;;18.38;;
26574;SDS011;67165;50.256;10.978;2024-03-07T11:12:45;31.17;;;17.75;;
26574;SDS011;67165;50.256;10.978;2024-03-07T11:15:14;33.25;;;18.83;;
26574;SDS011;67165;50.256;10.978;2024-03-07T11:17:44;32.05;;;18.73;;
26574;SDS011;67165;50.256;10.978;2024-03-07T11:20:19;28.90;;;17.70;;
26574;SDS011;67165;50.256;10.978;2024-03-07T11:22:46;27.85;;;17.48;;
26574;SDS011;67165;50.256;10.978;2024-03-07T11:25:12;33.17;;;18.35;;
26574;SDS011;67165;50.256;10.978;2024-03-07T11:27:38;32.20;;;17.92;;
26574;SDS011;67165;50.256;10.978;2024-03-07T11:30:05;32.42;;;18.13;;
26574;SDS011;67165;50.256;10.978;2024-03-07T11:32:34;31.95;;;18.63;;
26574;SDS011;67165;50.256;10.978;2024-03-07T11:35:03;31.10;;;17.60;;
26574;SDS011;67165;50.256;10.978;2024-03-07T11:37:42;32.65;;;17.63;;
26574;SDS011;67165;50.256;10.978;2024-03-07T11:40:12;34.97;;;17.67;;
26574;SDS011;67165;50.256;10.978;2024-03-07T11:42:48;27.10;;;17.30;;
26574;SDS011;67165;50.256;10.978;2024-03-07T11:45:14;31.90;;;17.45;;
26574;SDS011;67165;50.256;10.978;2024-03-07T11:47:51;29.73;;;17.73;;
26574;SDS011;67165;50.256;10.978;2024-03-07T11:50:32;30.45;;;18.30;;
26574;SDS011;67165;50.256;10.978;2024-03-07T11:53:00;31.05;;;18.45;;
26574;SDS011;67165;50.256;10.978;2024-03-07T11:55:27;32.08;;;18.17;;
26574;SDS011;67165;50.256;10.978;2024-03-07T11:58:07;30.85;;;18.15;;
26574;SDS011;67165;50.256;10.978;2024-03-07T12:00:37;35.47;;;18.40;;
26574;SDS011;67165;50.256;10.978;2024-03-07T12:03:12;29.98;;;17.38;;
26574;SDS011;67165;50.256;10.978;2024-03-07T12:05:40;27.70;;;16.85;;
26574;SDS011;67165;50.256;10.978;2024-03-07T12:08:06;27.42;;;16.30;;
26574;SDS011;67165;50.256;10.978;2024-03-07T12:10:34;29.95;;;15.60;;
26574;SDS011;67165;50.256;10.978;2024-03-07T12:13:01;28.25;;;16.92;;
26574;SDS011;67165;50.256;10.978;2024-03-07T12:15:30;26.50;;;15.30;;
26574;SDS011;67165;50.256;10.978;2024-03-07T12:17:57;30.02;;;15.82;;
26574;SDS011;67165;50.256;10.978;2024-03-07T12:20:23;26.35;;;14.57;;
26574;SDS011;67165;50.256;10.978;2024-03-07T12:22:58;28.00;;;14.60;;
26574;SDS011;67165;50.256;10.978;2024-03-07T12:25:28;27.77;;;14.85;;
26574;SDS011;67165;50.256;10.978;2024-03-07T12:28:01;24.85;;;13.93;;
26574;SDS011;67165;50.256;10.978;2024-03-07T12:30:57;25.45;;;14.45;;
26574;SDS011;67165;50.256;10.978;2024-03-07T12:33:22;24.58;;;15.25;;
26574;SDS011;67165;50.256;10.978;2024-03-07T12:35:50;26.65;;;15.35;;
26574;SDS011;67165;50.256;10.978;2024-03-07T12:38:20;30.55;;;16.20;;
26574;SDS011;67165;50.256;10.978;2024-03-07T12:41:01;28.70;;;17.17;;
26574;SDS011;67165;50.256;10.978;2024-03-07T12:43:31;25.98;;;16.20;;
26574;SDS011;67165;50.256;10.978;2024-03-07T12:45:57;28.20;;;16.42;;
26574;SDS011;67165;50.256;10.978;2024-03-07T12:48:24;26.05;;;15.50;;
26574;SDS011;67165;50.256;10.978;2024-03-07T12:50:50;24.42;;;15.68;;
26574;SDS011;67165;50.256;10.978;2024-03-07T12:53:20;25.88;;;15.35;;
26574;SDS011;67165;50.256;10.978;2024-03-07T12:55:54;25.13;;;15.90;;
26574;SDS011;67165;50.256;10.978;2024-03-07T12:58:19;24.90;;;15.95;;
26574;SDS011;67165;50.256;10.978;2024-03-07T13:00:50;27.15;;;14.57;;
26574;SDS011;67165;50.256;10.978;2024-03-07T13:03:17;24.63;;;14.02;;
26574;SDS011;67165;50.256;10.978;2024-03-07T13:05:42;21.05;;;14.20;;
26574;SDS011;67165;50.256;10.978;2024-03-07T13:08:11;23.55;;;14.30;;
26574;SDS011;67165;50.256;10.978;2024-03-07T13:10:46;23.05;;;13.85;;
26574;SDS011;67165;50.256;10.978;2024-03-07T13:13:12;24.65;;;14.20;;
26574;SDS011;67165;50.256;10.978;2024-03-07T13:15:38;26.75;;;14.63;;
26574;SDS011;67165;50.256;10.978;2024-03-07T13:18:05;25.88;;;14.35;;
26574;SDS011;67165;50.256;10.978;2024-03-07T13:20:31;23.77;;;14.55;;
26574;SDS011;67165;50.256;10.978;2024-03-07T13:22:57;27.58;;;14.77;;
26574;SDS011;67165;50.256;10.978;2024-03-07T13:25:25;23.30;;;14.07;;
26574;SDS011;67165;50.256;10.978;2024-03-07T13:30:21;24.27;;;13.93;;
26574;SDS011;67165;50.256;10.978;2024-03-07T13:32:52;25.23;;;13.93;;
26574;SDS011;67165;50.256;10.978;2024-03-07T13:35:25;28.92;;;13.20;;
26574;SDS011;67165;50.256;10.978;2024-03-07T13:37:52;24.13;;;13.52;;
26574;SDS011;67165;50.256;10.978;2024-03-07T13:40:22;30.65;;;17.27;;
26574;SDS011;67165;50.256;10.978;2024-03-07T13:45:19;24.27;;;14.10;;
26574;SDS011;67165;50.256;10.978;2024-03-07T13:47:47;27.77;;;14.27;;
26574;SDS011;67165;50.256;10.978;2024-03-07T13:50:15;21.35;;;13.65;;
26574;SDS011;67165;50.256;10.978;2024-03-07T13:52:41;20.80;;;13.88;;
26574;SDS011;67165;50.256;10.978;2024-03-07T13:55:19;22.38;;;13.07;;
26574;SDS011;67165;50.256;10.978;2024-03-07T13:57:49;22.02;;;12.73;;
26574;SDS011;67165;50.256;10.978;2024-03-07T14:00:27;21.38;;;13.50;;
26574;SDS011;67165;50.256;10.978;2024-03-07T14:05:55;22.00;;;13.57;;
26574;SDS011;67165;50.256;10.978;2024-03-07T14:19:43;22.30;;;13.05;;
26574;SDS011;67165;50.256;10.978;2024-03-07T14:25:49;22.77;;;13.35;;
26574;SDS011;67165;50.256;10.978;2024-03-07T14:31:30;24.48;;;14.75;;
26574;SDS011;67165;50.256;10.978;2024-03-07T14:36:44;26.00;;;15.13;;
26574;SDS011;67165;50.256;10.978;2024-03-07T14:39:13;21.50;;;13.93;;
26574;SDS011;67165;50.256;10.978;2024-03-07T14:41:55;26.92;;;14.52;;
26574;SDS011;67165;50.256;10.978;2024-03-07T14:44:26;23.67;;;13.95;;
26574;SDS011;67165;50.256;10.978;2024-03-07T14:47:00;24.08;;;14.35;;
26574;SDS011;67165;50.256;10.978;2024-03-07T14:49:32;26.33;;;14.50;;
26574;SDS011;67165;50.256;10.978;2024-03-07T14:51:59;23.27;;;13.65;;